Latest Weather Observations for Moree

IDN60801

Issued at 10:02 am EST Friday 27 May 2016 (issued every 30 minutes, with the page automatically refreshed every 10 minutes)

About weather observations | Map of weather stations | Latest weather observations for NSW | Other Formats
Station Details ID: 053115 Name: MOREE AERO Lat: -29.49 Lon: 149.85 Height: 213.0 m
Data from the previous 72 hours. | See also: Recent months at Moree
Date/Time
EST
Temp
°C
App
Temp
°C
Dew
Point
Rel
Hum
%
Delta-T
°C
Wind Press
QNH
hPa
Press
MSL
hPa
Rain
since 9 am
mm
Dir
 
Spd
km/h
Gust
km/h
Spd
kts
Gust
kts
27/09:40am 13.6 10.0 10.4 81 1.7 SW 20 28 11 15 1012.2 1011.9 0.0
27/09:30am 13.6 9.4 11.0 84 1.4 SW 24 28 13 15 1012.5 1012.2 0.0
27/09:00am 13.3 10.1 11.2 87 1.1 SW 19 24 10 13 1011.6 1011.4 11.4
27/08:54am 13.5 10.4 11.6 88 1.0 WSW 19 26 10 14 1011.7 1011.5 11.4
27/08:30am 13.3 10.2 11.7 90 0.9 WSW 19 24 10 13 1011.6 1011.4 11.4
27/08:00am 13.0 10.4 11.9 93 0.6 WSW 17 24 9 13 1011.2 1011.0 11.4
27/07:30am 12.9 10.2 11.6 92 0.7 WSW 17 19 9 10 1011.1 1010.9 11.4
27/07:00am 13.0 10.0 11.9 93 0.6 WSW 19 24 10 13 1010.8 1010.5 11.4
27/06:30am 13.1 10.5 12.0 93 0.6 WSW 17 20 9 11 1010.2 1009.9 11.4
27/06:00am 13.4 10.9 12.3 93 0.6 WSW 17 19 9 10 1010.0 1009.7 11.4
27/05:30am 13.5 11.0 12.2 92 0.7 WSW 17 20 9 11 1009.6 1009.3 11.4
27/05:00am 13.9 11.5 12.6 92 0.7 W 17 22 9 12 1009.1 1008.8 11.4
27/04:32am 14.2 12.3 13.1 93 0.6 WSW 15 19 8 10 1008.9 1008.6 11.4
27/04:30am 14.2 12.3 13.1 93 0.6 WSW 15 19 8 10 1009.0 1008.7 11.4
27/04:11am 14.3 12.8 13.2 93 0.6 W 13 15 7 8 1008.9 1008.6 11.4
27/04:00am 14.3 12.5 13.3 94 0.6 W 15 17 8 9 1009.0 1008.7 11.4
27/03:30am 14.3 12.9 13.3 94 0.6 W 13 17 7 9 1008.8 1008.5 11.4
27/03:00am 14.3 12.9 13.3 94 0.6 WNW 13 15 7 8 1008.7 1008.4 11.4
27/02:42am 14.5 12.8 13.5 94 0.6 W 15 17 8 9 1009.2 1008.9 11.4
27/02:30am 14.5 12.7 13.4 93 0.6 W 15 17 8 9 1009.4 1009.1 11.4
27/02:00am 14.6 13.7 13.6 94 0.6 W 11 15 6 8 1008.9 1008.6 11.4
27/01:30am 14.6 12.9 13.5 93 0.6 W 15 17 8 9 1009.3 1009.0 11.4
27/01:00am 14.6 12.9 13.6 94 0.6 W 15 19 8 10 1009.6 1009.3 11.2
27/12:30am 14.6 13.3 13.6 94 0.6 NW 13 15 7 8 1009.3 1009.0 11.2
27/12:00am 14.7 13.0 13.7 94 0.6 W 15 19 8 10 1009.2 1008.9 10.4
 
Date/Time
EST
Temp
°C
App
Temp
°C
Dew
Point
Rel
Hum
%
Delta-T
°C
Wind Press
QNH
hPa
Press
MSL
hPa
Rain
since 9 am
mm
Dir
 
Spd
km/h
Gust
km/h
Spd
kts
Gust
kts
26/11:30pm 14.8 12.7 13.7 93 0.6 WNW 17 19 9 10 1009.4 1009.1 9.8
26/11:19pm 14.9 13.6 13.6 92 0.7 WNW 13 17 7 9 1009.2 1008.9 9.4
26/11:00pm 15.0 13.6 13.5 91 0.8 W 13 17 7 9 1008.8 1008.5 9.2
26/10:30pm 15.2 13.1 13.7 91 0.8 W 17 20 9 11 1009.3 1009.0 9.2
26/10:00pm 15.6 13.3 14.1 91 0.9 W 19 26 10 14 1009.0 1008.7 9.2
26/09:46pm 15.7 12.9 14.2 91 0.9 W 22 28 12 15 1009.3 1009.0 9.2
26/09:30pm 15.9 13.5 14.3 90 0.9 W 20 28 11 15 1009.0 1008.7 9.2
26/09:00pm 16.3 14.1 14.5 89 1.0 W 19 24 10 13 1008.9 1008.6 9.2
26/08:37pm 16.1 15.1 14.5 90 0.9 WNW 13 15 7 8 1009.0 1008.7 9.2
26/08:30pm 15.9 15.2 14.3 90 0.9 WNW 11 15 6 8 1009.1 1008.8 9.2
26/08:00pm 15.0 14.6 14.0 94 0.6 N 9 11 5 6 1009.0 1008.7 9.2
26/07:30pm 14.5 13.5 13.5 94 0.6 NNE 11 13 6 7 1008.5 1008.2 9.2
26/07:00pm 14.7 13.4 13.7 94 0.6 NNE 13 19 7 10 1008.4 1008.1 9.2
26/06:59pm 14.7 13.4 13.7 94 0.6 NNE 13 19 7 10 1008.4 1008.1 9.2
26/06:30pm 14.5 12.3 13.4 93 0.6 NE 17 20 9 11 1008.3 1008.0 7.8
26/06:00pm 14.6 12.7 13.1 91 0.8 NE 15 19 8 10 1008.2 1007.9 4.6
26/05:37pm 14.8 14.4 13.0 89 1.0 NE 7 13 4 7 1009.0 1008.7 2.2
26/05:30pm 14.9 14.2 13.1 89 1.0 ENE 9 11 5 6 1009.1 1008.8 1.4
26/05:00pm 15.0 14.6 12.9 87 1.2 ENE 7 11 4 6 1008.8 1008.5 1.2
26/04:30pm 15.5 13.9 12.8 84 1.5 ESE 13 15 7 8 1008.0 1007.7 0.6
26/04:00pm 15.4 12.9 12.3 82 1.7 SSE 17 19 9 10 1008.6 1008.3 0.6
26/03:30pm 16.1 13.5 11.9 76 2.3 SE 17 20 9 11 1008.3 1008.0 0.6
26/03:00pm 16.5 13.2 11.6 73 2.7 SSE 20 28 11 15 1008.5 1008.2 0.6
26/02:30pm 16.2 10.5 11.2 72 2.7 S 32 41 17 22 1009.7 1009.4 0.6
26/02:08pm 19.1 15.1 9.0 52 5.3 ESE 20 63 11 34 1009.1 1008.8 0.6
26/02:00pm 19.0 15.2 8.9 52 5.3 E 19 22 10 12 1007.2 1006.9 0.6
26/01:30pm 18.6 14.6 10.4 59 4.4 E 22 30 12 16 1007.7 1007.4 0.6
26/01:00pm 16.7 12.0 10.5 67 3.3 E 26 35 14 19 1008.2 1007.9 0.6
26/12:58pm 16.2 10.8 9.6 65 3.5 E 28 35 15 19 1008.0 1007.7 0.6
26/12:30pm 14.9 9.0 9.1 68 3.0 SE 30 35 16 19 1010.0 1009.7 0.6
26/12:00pm 14.6 8.7 7.6 63 3.5 SSE 28 35 15 19 1011.5 1011.3 0.4
26/11:50am 14.8 8.0 7.6 62 3.6 S 33 41 18 22 1011.3 1011.1 0.4
26/11:30am 14.4 6.1 7.7 64 3.4 SSW 41 52 22 28 1012.4 1012.1 0.4
26/11:28am 14.5 6.6 8.0 65 3.3 SSW 39 52 21 28 1012.2 1011.9 0.4
26/11:06am 17.8 11.9 7.5 51 5.3 WSW 28 46 15 25 1011.9 1011.6 0.4
26/11:00am 19.7 12.8 6.4 42 6.7 W 32 39 17 21 1011.7 1011.5 0.2
26/10:30am 22.4 16.2 2.0 26 9.7 N 24 33 13 18 1010.1 1009.8 0.0
26/10:00am 21.0 13.8 0.8 26 9.3 N 28 39 15 21 1010.9 1010.6 0.0
26/09:30am 20.4 12.6 -0.8 24 9.4 NNE 30 39 16 21 1011.5 1011.3 0.0
26/09:00am 17.5 9.9 -2.2 26 8.2 NNE 28 33 15 18 1011.9 1011.6 0.0
26/08:30am 15.2 8.4 -2.2 30 7.1 NE 24 30 13 16 1012.2 1011.9 0.0
26/08:00am 13.3 6.8 -2.2 34 6.2 NE 22 28 12 15 1012.6 1012.3 0.0
26/07:30am 11.7 6.2 -1.8 39 5.4 ENE 17 20 9 11 1012.8 1012.5 0.0
26/07:00am 8.8 3.0 -1.6 48 4.0 ENE 19 24 10 13 1013.1 1012.8 0.0
26/06:30am 8.3 2.5 -1.8 49 3.9 ENE 19 22 10 12 1013.2 1012.9 0.0
26/06:00am 7.8 2.7 -1.7 51 3.6 E 15 20 8 11 1013.6 1013.3 0.0
26/05:30am 7.9 3.2 -1.6 51 3.6 ENE 13 17 7 9 1013.8 1013.5 0.0
26/05:00am 8.4 3.7 -1.7 49 3.9 NE 13 15 7 8 1013.8 1013.5 0.0
26/04:30am 7.9 3.2 -2.1 49 3.8 NE 13 17 7 9 1013.7 1013.4 0.0
26/04:00am 8.1 2.6 -2.0 49 3.8 ENE 17 19 9 10 1013.6 1013.3 0.0
26/03:30am 7.8 2.3 -2.0 50 3.7 ENE 17 22 9 12 1013.9 1013.6 0.0
26/03:00am 7.6 2.5 -1.6 52 3.5 ENE 15 19 8 10 1014.4 1014.1 0.0
26/02:30am 6.5 2.2 -1.9 55 3.1 ENE 11 15 6 8 1014.8 1014.5 0.0
26/02:00am 6.3 0.7 -2.8 52 3.3 ENE 17 20 9 11 1014.5 1014.2 0.0
26/01:30am 6.4 0.8 -2.5 53 3.3 ENE 17 19 9 10 1014.9 1014.6 0.0
26/01:00am 5.9 0.4 -2.4 55 3.0 ENE 17 19 9 10 1014.9 1014.6 0.0
26/12:30am 5.9 1.0 -3.2 52 3.3 E 13 19 7 10 1015.4 1015.2 0.0
26/12:00am 7.3 3.7 -1.9 52 3.5 SE 7 9 4 5 1016.1 1015.9 0.0
 
Date/Time
EST
Temp
°C
App
Temp
°C
Dew
Point
Rel
Hum
%
Delta-T
°C
Wind Press
QNH
hPa
Press
MSL
hPa
Rain
since 9 am
mm
Dir
 
Spd
km/h
Gust
km/h
Spd
kts
Gust
kts
25/11:30pm 7.5 3.1 -2.5 49 3.7 ENE 11 11 6 6 1016.0 1015.8 0.0
25/11:00pm 8.5 3.7 -2.7 45 4.2 ENE 13 15 7 8 1016.2 1016.0 0.0
25/10:30pm 7.5 2.5 -3.9 44 4.1 ENE 13 15 7 8 1016.2 1016.0 0.0
25/10:00pm 7.8 3.7 -2.8 47 3.9 ENE 9 11 5 6 1016.4 1016.2 0.0
25/09:30pm 9.0 5.0 -2.3 45 4.3 E 9 11 5 6 1017.0 1016.7 0.0
25/09:00pm 9.9 7.6 -2.1 43 4.6 CALM 0 0 0 0 1017.2 1016.9 0.0
25/08:30pm 10.4 8.1 -2.3 41 4.9 CALM 0 0 0 0 1016.9 1016.6 0.0
25/08:00pm 11.3 9.2 -0.8 43 4.9 CALM 0 0 0 0 1016.5 1016.3 0.0
25/07:30pm 12.1 10.0 -1.1 40 5.4 CALM 0 0 0 0 1016.4 1016.2 0.0
25/07:00pm 12.5 10.3 -1.4 38 5.6 CALM 0 0 0 0 1016.4 1016.2 0.0
25/06:30pm 14.2 12.0 -1.8 33 6.5 CALM 0 0 0 0 1016.4 1016.2 0.0
25/06:00pm 15.4 12.1 -1.6 31 7.0 SW 6 7 3 4 1016.1 1015.9 0.0
25/05:30pm 16.5 13.1 -2.0 28 7.7 WNW 6 7 3 4 1015.8 1015.6 0.0
25/05:00pm 20.4 16.7 -2.6 21 9.8 NW 7 7 4 4 1015.7 1015.5 0.0
25/04:30pm 21.4 17.3 -3.1 19 10.4 NNW 9 11 5 6 1015.6 1015.4 0.0
25/04:00pm 22.0 18.3 -2.7 19 10.6 N 7 11 4 6 1015.6 1015.4 0.0
25/03:30pm 21.7 18.3 -2.2 20 10.4 E 6 9 3 5 1015.7 1015.5 0.0
25/03:00pm 22.0 17.9 -2.7 19 10.6 N 9 15 5 8 1016.0 1015.8 0.0
25/02:30pm 21.5 17.9 -2.4 20 10.3 NW 7 15 4 8 1016.3 1016.1 0.0
25/02:00pm 20.4 16.6 -0.8 24 9.3 W 9 11 5 6 1016.4 1016.2 0.0
25/01:30pm 20.3 16.2 -0.3 25 9.2 WNW 11 15 6 8 1016.9 1016.6 0.0
25/01:00pm 20.0 16.1 -1.2 24 9.2 NW 9 13 5 7 1017.5 1017.2 0.0
25/12:30pm 19.8 16.1 -0.2 26 8.9 WNW 9 24 5 13 1017.8 1017.5 0.0
25/12:00pm 19.0 15.8 0.6 29 8.2 WNW 7 13 4 7 1018.4 1018.1 0.0
25/11:30am 17.9 14.9 1.0 32 7.6 NNE 6 17 3 9 1019.1 1018.9 0.0
25/11:00am 17.2 14.3 2.4 37 6.8 N 7 11 4 6 1019.6 1019.4 0.0
25/10:30am 16.4 13.5 2.4 39 6.4 E 7 13 4 7 1019.9 1019.7 0.0
25/10:00am 14.6 11.5 3.4 47 5.1 NE 9 11 5 6 1020.1 1019.9 0.0
25/09:30am 13.1 9.9 3.2 51 4.5 E 9 11 5 6 1020.2 1020.0 0.0
25/09:00am 11.5 8.3 3.3 57 3.6 E 9 13 5 7 1020.4 1020.2 0.0
25/08:30am 9.0 5.3 2.3 63 2.8 E 11 13 6 7 1020.3 1020.1 0.0
25/08:00am 6.6 2.8 1.5 70 2.1 E 11 13 6 7 1020.3 1020.1 0.0
25/07:30am 4.9 1.4 1.0 76 1.5 E 9 13 5 7 1020.1 1019.9 0.0
25/07:00am 3.3 -0.2 1.2 86 0.8 ENE 9 11 5 6 1019.9 1019.7 0.0
25/06:30am 1.5 -2.7 -0.6 86 0.8 E 11 11 6 6 1019.8 1019.6 0.0
25/06:00am 2.2 -1.8 0.4 88 0.7 SE 11 11 6 6 1019.6 1019.4 0.0
25/05:30am 2.2 -1.6 -0.4 83 1.0 SSE 9 9 5 5 1019.4 1019.2 0.0
25/05:00am 3.8 0.7 1.4 84 0.9 S 7 9 4 5 1019.4 1019.2 0.0
25/04:30am 3.6 1.8 1.5 86 0.8 CALM 0 0 0 0 1019.6 1019.4 0.0
25/04:00am 3.7 1.8 0.6 80 1.2 CALM 0 4 0 2 1019.5 1019.3 0.0
25/03:30am 5.0 2.7 2.5 84 1.0 WSW 4 9 2 5 1020.0 1019.8 0.0
25/03:00am 4.3 0.8 1.3 81 1.2 SE 9 9 5 5 1020.0 1019.8 0.0
25/02:30am 5.0 1.9 1.1 76 1.5 SSE 7 15 4 8 1019.8 1019.6 0.0
25/02:00am 6.0 2.2 1.9 75 1.7 WSW 11 11 6 6 1019.6 1019.4 0.0
25/01:30am 6.9 3.7 2.8 75 1.7 WSW 9 11 5 6 1020.0 1019.8 0.0
25/01:00am 6.4 3.0 1.9 73 1.8 SW 9 15 5 8 1020.2 1020.0 0.0
25/12:30am 6.8 3.0 1.7 70 2.1 SW 11 11 6 6 1020.2 1020.0 0.0
25/12:00am 7.7 3.9 2.0 67 2.4 WSW 11 13 6 7 1020.3 1020.1 0.0
 
Date/Time
EST
Temp
°C
App
Temp
°C
Dew
Point
Rel
Hum
%
Delta-T
°C
Wind Press
QNH
hPa
Press
MSL
hPa
Rain
since 9 am
mm
Dir
 
Spd
km/h
Gust
km/h
Spd
kts
Gust
kts
24/11:30pm 8.2 4.5 2.2 66 2.5 WNW 11 13 6 7 1020.4 1020.2 0.0
24/11:00pm 8.8 5.1 2.4 64 2.7 W 11 13 6 7 1020.6 1020.4 0.0
24/10:30pm 8.0 4.7 2.3 67 2.4 W 9 11 5 6 1020.7 1020.5 0.0
24/10:00pm 9.2 5.9 2.5 63 2.9 SSW 9 11 5 6 1020.8 1020.6 0.0
24/09:30pm 9.6 5.9 2.2 60 3.2 SSW 11 13 6 7 1020.9 1020.7 0.0
24/09:00pm 10.1 5.5 1.7 56 3.5 SSW 15 17 8 9 1021.1 1020.9 0.0
24/08:30pm 10.4 5.4 1.2 53 3.9 SW 17 17 9 9 1020.9 1020.7 0.0
24/08:00pm 11.5 6.5 1.2 49 4.4 SW 17 19 9 10 1020.6 1020.4 0.0
24/07:30pm 11.9 6.8 1.0 47 4.6 SW 17 19 9 10 1020.3 1020.1 0.0
24/07:00pm 13.0 7.9 1.0 44 5.1 SW 17 17 9 9 1020.1 1019.9 0.0
24/06:30pm 13.7 9.1 1.4 43 5.4 SW 15 17 8 9 1019.9 1019.7 0.0
24/06:00pm 14.5 9.8 1.1 40 5.8 SW 15 17 8 9 1019.7 1019.5 0.0
24/05:30pm 16.0 11.0 1.3 37 6.5 SW 17 19 9 10 1019.4 1019.2 0.0
24/05:00pm 17.8 11.5 1.3 33 7.4 SW 24 32 13 17 1019.3 1019.1 0.0
24/04:30pm 19.0 12.3 1.5 31 8.0 SW 26 35 14 19 1019.1 1018.9 0.0
24/04:00pm 19.9 13.2 1.4 29 8.5 SW 26 32 14 17 1018.9 1018.7 0.0
24/03:30pm 20.3 13.6 1.7 29 8.6 SW 26 33 14 18 1018.8 1018.5 0.0
24/03:00pm 20.0 13.1 2.4 31 8.2 SW 28 39 15 21 1018.7 1018.4 0.0
24/02:30pm 20.2 12.5 2.1 30 8.4 SSW 32 39 17 21 1018.8 1018.5 0.0
24/02:00pm 20.0 12.1 2.4 31 8.2 SSW 33 41 18 22 1018.8 1018.5 0.0
24/01:30pm 19.9 12.6 2.7 32 8.1 SSW 30 37 16 20 1019.0 1018.8 0.0
24/01:00pm 19.6 11.7 2.0 31 8.1 SSW 33 43 18 23 1019.3 1019.1 0.0
24/12:49pm 19.8 12.1 2.2 31 8.2 SSW 32 50 17 27 1019.5 1019.3 0.0
24/12:30pm 19.1 11.3 2.0 32 7.9 SSW 32 43 17 23 1019.7 1019.5 0.0
24/12:00pm 18.5 11.4 1.5 32 7.7 SSW 28 35 15 19 1020.1 1019.9 0.0
24/11:30am 18.4 11.3 1.4 32 7.7 SSW 28 35 15 19 1020.8 1020.6 0.0
24/11:00am 18.2 11.8 0.8 31 7.8 SSW 24 33 13 18 1021.5 1021.2 0.0
24/10:30am 17.5 11.6 1.5 34 7.2 SSW 22 30 12 16 1021.7 1021.4 0.0

Other Formats:

Comma delimited format used in spreadsheet applications
http://www.bom.gov.au/fwo/IDN60801/IDN60801.95527.axf

JavaScript Object Notation format (JSON) in row-major order
http://www.bom.gov.au/fwo/IDN60801/IDN60801.95527.json